createdAt,value
2022-10-04T00:00:49.157Z,4.05
2022-10-04T00:03:30.866Z,5.03
2022-10-04T00:06:00.851Z,6.13
2022-10-04T00:08:44.483Z,4.68
2022-10-04T00:11:19.151Z,4.45
2022-10-04T00:13:54.013Z,3.63
2022-10-04T00:16:40.752Z,3.70
2022-10-04T00:19:15.984Z,4.20
2022-10-04T00:21:57.692Z,5.18
2022-10-04T00:24:32.369Z,5.15
2022-10-04T00:27:19.008Z,3.60
2022-10-04T00:30:09.399Z,5.10
2022-10-04T00:32:39.409Z,4.32
2022-10-04T00:35:24.524Z,4.22
2022-10-04T00:38:14.858Z,3.67
2022-10-04T00:41:08.728Z,9.07
2022-10-04T00:43:42.608Z,10.70
2022-10-04T00:46:18.551Z,8.10
2022-10-04T00:49:06.730Z,8.55
2022-10-04T00:51:41.632Z,8.68
2022-10-04T00:54:32.461Z,6.18
2022-10-04T00:57:07.465Z,5.25
2022-10-04T00:59:44.446Z,3.90
2022-10-04T01:02:16.472Z,3.83
2022-10-04T01:04:52.536Z,6.45
2022-10-04T01:07:26.969Z,3.95
2022-10-04T01:10:01.356Z,5.78
2022-10-04T01:12:36.519Z,2.90
2022-10-04T01:15:14.220Z,4.88
2022-10-04T01:17:40.608Z,6.10
2022-10-04T01:20:34.497Z,7.20
2022-10-04T01:23:03.573Z,3.65
2022-10-04T01:25:50.259Z,4.95
2022-10-04T01:28:16.912Z,5.45
2022-10-04T01:30:43.966Z,4.40
2022-10-04T01:33:12.434Z,5.57
2022-10-04T01:35:39.072Z,5.95
2022-10-04T01:40:57.203Z,5.18
2022-10-04T01:43:31.786Z,6.78
2022-10-04T01:46:09.642Z,4.90
2022-10-04T01:48:37.661Z,5.80
2022-10-04T01:51:19.155Z,6.75
2022-10-04T01:53:54.427Z,3.83
2022-10-04T01:56:28.535Z,4.25
2022-10-04T01:59:01.974Z,4.88
2022-10-04T02:01:50.409Z,4.10
2022-10-04T02:04:27.188Z,4.13
2022-10-04T02:09:43.646Z,6.47
2022-10-04T02:12:16.191Z,6.60
2022-10-04T02:14:52.623Z,25.50
2022-10-04T02:17:23.211Z,29.02
2022-10-04T02:19:50.469Z,21.55
2022-10-04T02:22:18.278Z,18.08
2022-10-04T02:24:48.282Z,15.18
2022-10-04T02:27:15.743Z,5.03
2022-10-04T02:29:42.691Z,6.60
2022-10-04T02:32:29.224Z,4.97
2022-10-04T02:34:57.043Z,6.75
2022-10-04T02:37:26.787Z,4.88
2022-10-04T02:40:07.627Z,6.63
2022-10-04T02:42:34.553Z,5.97
2022-10-04T02:45:13.620Z,5.22
2022-10-04T02:48:06.090Z,5.90
2022-10-04T02:50:44.211Z,7.55
2022-10-04T02:53:50.134Z,5.15
2022-10-04T02:56:18.005Z,4.15
2022-10-04T02:58:44.662Z,3.83
2022-10-04T03:01:26.501Z,20.17
2022-10-04T03:03:55.971Z,16.80
2022-10-04T03:06:26.125Z,14.50
2022-10-04T03:09:02.820Z,7.03
2022-10-04T03:11:33.967Z,6.95
2022-10-04T03:14:05.215Z,6.47
2022-10-04T03:21:33.944Z,4.72
2022-10-04T03:24:03.379Z,5.55
2022-10-04T03:26:37.520Z,3.70
2022-10-04T03:29:10.153Z,4.32
2022-10-04T03:32:04.250Z,5.18
2022-10-04T03:37:06.060Z,3.95
2022-10-04T03:39:43.560Z,3.33
2022-10-04T03:42:20.299Z,2.33
2022-10-04T03:44:49.250Z,3.85
2022-10-04T03:47:33.774Z,4.07
2022-10-04T03:50:04.992Z,3.35
2022-10-04T03:55:03.096Z,5.20
2022-10-04T03:57:30.819Z,3.42
2022-10-04T03:59:58.924Z,4.60
2022-10-04T04:02:46.448Z,4.07
2022-10-04T04:05:29.461Z,2.58
2022-10-04T04:08:04.404Z,4.22
2022-10-04T04:10:35.766Z,4.88
2022-10-04T04:13:10.930Z,3.60
2022-10-04T04:15:38.018Z,7.53
2022-10-04T04:18:10.903Z,3.78
2022-10-04T04:20:38.490Z,3.70
2022-10-04T04:23:13.940Z,4.25
2022-10-04T04:25:43.954Z,5.53
2022-10-04T04:28:33.385Z,5.55
2022-10-04T04:31:04.484Z,12.50
2022-10-04T04:33:47.188Z,5.75
2022-10-04T04:36:16.948Z,5.82
2022-10-04T04:39:16.136Z,4.75
2022-10-04T04:41:45.784Z,5.50
2022-10-04T04:44:19.397Z,3.45
2022-10-04T04:46:47.570Z,2.83
2022-10-04T04:49:17.911Z,3.50
2022-10-04T04:51:51.298Z,2.75
2022-10-04T04:54:22.028Z,5.72
2022-10-04T04:56:52.880Z,4.82
2022-10-04T04:59:22.378Z,1.95
2022-10-04T05:01:50.205Z,3.45
2022-10-04T05:04:20.838Z,3.42
2022-10-04T05:07:16.207Z,4.15
2022-10-04T05:09:42.528Z,2.47
2022-10-04T05:12:15.982Z,2.10
2022-10-04T05:14:49.339Z,4.22
2022-10-04T05:17:24.068Z,4.13
2022-10-04T05:19:55.859Z,3.78
2022-10-04T05:22:24.896Z,4.18
2022-10-04T05:24:59.943Z,6.30
2022-10-04T05:27:42.641Z,2.83
2022-10-04T05:30:09.594Z,2.50
2022-10-04T05:32:55.614Z,2.78
2022-10-04T05:35:23.438Z,5.00
2022-10-04T05:38:02.491Z,2.58
2022-10-04T05:40:50.713Z,2.40
2022-10-04T05:43:41.406Z,3.88
2022-10-04T05:46:26.879Z,4.20
2022-10-04T05:49:01.870Z,2.70
2022-10-04T05:51:30.719Z,4.22
2022-10-04T05:54:00.977Z,4.05
2022-10-04T05:56:30.138Z,4.93
2022-10-04T05:59:09.572Z,3.28
2022-10-04T06:02:03.344Z,5.25
2022-10-04T06:04:45.364Z,3.55
2022-10-04T06:07:38.088Z,4.65
2022-10-04T06:10:26.013Z,5.20
2022-10-04T06:13:09.598Z,2.25
2022-10-04T06:15:51.433Z,2.47
2022-10-04T06:18:23.587Z,3.30
2022-10-04T06:21:05.939Z,3.17
2022-10-04T06:23:41.838Z,2.20
2022-10-04T06:26:13.776Z,4.13
2022-10-04T06:28:48.074Z,4.32
2022-10-04T06:31:24.514Z,2.65
2022-10-04T06:34:24.621Z,2.92
2022-10-04T06:37:17.291Z,4.50
2022-10-04T06:40:20.678Z,5.22
2022-10-04T06:42:48.008Z,7.35
2022-10-04T06:45:42.501Z,3.00
2022-10-04T06:48:27.371Z,4.90
2022-10-04T06:51:09.188Z,5.65
2022-10-04T06:54:06.088Z,2.70
2022-10-04T06:56:47.301Z,8.68
2022-10-04T06:59:36.160Z,2.83
2022-10-04T07:02:14.102Z,5.47
2022-10-04T07:05:11.514Z,3.28
2022-10-04T07:07:41.949Z,4.25
2022-10-04T07:10:08.262Z,3.33
2022-10-04T07:12:39.132Z,3.58
2022-10-04T07:15:18.662Z,3.28
2022-10-04T07:17:48.013Z,5.15
2022-10-04T07:20:22.562Z,3.78
2022-10-04T07:22:57.543Z,5.15
2022-10-04T07:25:33.985Z,3.88
2022-10-04T07:28:33.357Z,6.97
2022-10-04T07:31:14.730Z,3.92
2022-10-04T07:33:52.195Z,3.42
2022-10-04T07:36:45.282Z,6.43
2022-10-04T07:39:20.937Z,4.90
2022-10-04T07:41:50.272Z,5.13
2022-10-04T07:44:45.436Z,4.65
2022-10-04T07:47:20.706Z,4.10
2022-10-04T07:49:50.872Z,4.97
2022-10-04T07:52:29.246Z,3.47
2022-10-04T07:55:02.104Z,6.55
2022-10-04T07:57:41.637Z,3.60
2022-10-04T08:00:13.552Z,4.13
2022-10-04T08:03:09.571Z,3.75
2022-10-04T08:05:45.576Z,6.55
2022-10-04T08:08:34.505Z,8.13
2022-10-04T08:11:23.655Z,4.75
2022-10-04T08:14:17.320Z,4.43
2022-10-04T08:17:15.775Z,3.75
2022-10-04T08:20:02.773Z,3.70
2022-10-04T08:23:07.047Z,7.82
2022-10-04T08:26:15.032Z,5.38
2022-10-04T08:29:12.406Z,6.72
2022-10-04T08:31:46.296Z,4.00
2022-10-04T08:34:28.977Z,7.53
2022-10-04T08:37:30.664Z,6.10
2022-10-04T08:40:33.224Z,9.75
2022-10-04T08:43:33.987Z,6.25
2022-10-04T08:46:26.021Z,6.35
2022-10-04T08:49:13.584Z,4.88
2022-10-04T08:51:58.444Z,6.78
2022-10-04T08:54:57.023Z,5.13
2022-10-04T08:57:43.867Z,5.70
2022-10-04T09:00:20.848Z,6.22
2022-10-04T09:03:06.089Z,7.85
2022-10-04T09:05:50.378Z,7.72
2022-10-04T09:08:47.854Z,5.78
2022-10-04T09:11:34.527Z,5.35
2022-10-04T09:14:31.671Z,5.80
2022-10-04T09:17:22.314Z,7.00
2022-10-04T09:20:36.759Z,5.88
2022-10-04T09:23:33.585Z,5.20
2022-10-04T09:26:37.360Z,8.68
2022-10-04T09:29:33.488Z,5.40
2022-10-04T09:32:05.912Z,5.20
2022-10-04T09:35:03.850Z,5.10
2022-10-04T09:38:06.489Z,5.25
2022-10-04T09:41:08.432Z,7.63
2022-10-04T09:43:46.651Z,5.00
2022-10-04T09:46:37.525Z,4.47
2022-10-04T09:49:36.703Z,7.07
2022-10-04T09:52:18.167Z,7.32
2022-10-04T09:55:13.406Z,4.88
2022-10-04T09:58:07.600Z,5.57
2022-10-04T10:00:50.358Z,4.35
2022-10-04T10:03:37.954Z,7.63
2022-10-04T10:06:34.651Z,4.70
2022-10-04T10:10:07.307Z,5.93
2022-10-04T10:13:31.996Z,7.05
2022-10-04T10:16:19.959Z,7.25
2022-10-04T10:19:28.312Z,6.13
2022-10-04T10:22:32.247Z,4.82
2022-10-04T10:25:07.735Z,7.03
2022-10-04T10:27:57.233Z,6.53
2022-10-04T10:30:35.672Z,6.85
2022-10-04T10:33:38.177Z,6.55
2022-10-04T10:36:21.327Z,5.32
2022-10-04T10:39:22.440Z,5.75
2022-10-04T10:42:14.535Z,6.57
2022-10-04T10:44:41.497Z,7.00
2022-10-04T10:47:50.815Z,7.47
2022-10-04T10:50:26.141Z,5.03
2022-10-04T10:53:29.920Z,4.90
2022-10-04T10:56:30.501Z,5.57
2022-10-04T10:59:25.256Z,5.25
2022-10-04T11:02:18.117Z,7.05
2022-10-04T11:04:54.153Z,5.35
2022-10-04T11:07:50.750Z,6.60
2022-10-04T11:10:41.987Z,6.18
2022-10-04T11:13:28.040Z,17.98
2022-10-04T11:16:25.069Z,6.80
2022-10-04T11:19:34.719Z,5.13
2022-10-04T11:22:18.981Z,5.53
2022-10-04T11:25:15.986Z,2.70
2022-10-04T11:28:02.337Z,5.40
2022-10-04T11:31:10.009Z,4.18
2022-10-04T11:33:58.177Z,3.70
2022-10-04T11:36:47.586Z,5.53
2022-10-04T11:39:30.283Z,5.20
2022-10-04T11:42:23.128Z,6.32
2022-10-04T11:45:23.056Z,5.03
2022-10-04T11:48:43.258Z,6.68
2022-10-04T11:51:22.525Z,4.22
2022-10-04T11:54:10.229Z,3.38
2022-10-04T11:57:25.995Z,6.05
2022-10-04T12:00:20.871Z,5.63
2022-10-04T12:03:44.273Z,3.78
2022-10-04T12:06:33.704Z,4.78
2022-10-04T12:09:27.658Z,3.45
2022-10-04T12:12:30.887Z,6.57
2022-10-04T12:15:04.116Z,4.15
2022-10-04T12:18:05.167Z,3.20
2022-10-04T12:20:51.175Z,4.50
2022-10-04T12:23:20.206Z,3.47
2022-10-04T12:26:07.172Z,4.15
2022-10-04T12:29:10.236Z,4.20
2022-10-04T12:31:53.249Z,2.75
2022-10-04T12:34:41.377Z,4.70
2022-10-04T12:37:16.924Z,2.75
2022-10-04T12:40:06.873Z,1.55
2022-10-04T12:42:47.159Z,3.42
2022-10-04T12:45:42.444Z,2.60
2022-10-04T12:48:22.912Z,2.20
2022-10-04T12:51:01.381Z,1.88
2022-10-04T12:53:42.855Z,1.23
2022-10-04T12:56:32.012Z,1.95
2022-10-04T12:59:35.293Z,3.05
2022-10-04T13:02:12.688Z,2.40
2022-10-04T13:04:49.350Z,2.60
2022-10-04T13:07:21.651Z,3.90
2022-10-04T13:10:19.244Z,2.40
2022-10-04T13:13:28.243Z,2.20
2022-10-04T13:19:16.557Z,2.58
2022-10-04T13:21:52.831Z,3.30
2022-10-04T13:27:13.974Z,2.10
2022-10-04T13:30:06.647Z,2.60
2022-10-04T13:32:48.412Z,2.38
2022-10-04T13:35:21.937Z,1.80
2022-10-04T13:38:29.235Z,3.30
2022-10-04T13:41:08.504Z,1.27
2022-10-04T13:43:49.443Z,2.95
2022-10-04T13:46:27.950Z,1.15
2022-10-04T13:48:57.352Z,3.20
2022-10-04T13:52:15.439Z,1.70
2022-10-04T13:55:29.616Z,1.73
2022-10-04T13:58:10.946Z,1.50
2022-10-04T14:01:05.231Z,1.27
2022-10-04T14:03:49.058Z,1.05
2022-10-04T14:06:37.137Z,2.03
2022-10-04T14:09:15.504Z,1.40
2022-10-04T14:12:33.798Z,3.55
2022-10-04T14:15:27.740Z,2.05
2022-10-04T14:18:15.955Z,2.05
2022-10-04T14:21:19.166Z,1.33
2022-10-04T14:24:36.789Z,1.88
2022-10-04T14:27:39.783Z,0.88
2022-10-04T14:30:12.486Z,2.20
2022-10-04T14:32:51.904Z,1.67
2022-10-04T14:35:27.577Z,1.95
2022-10-04T14:38:13.000Z,4.07
2022-10-04T14:41:12.158Z,1.65
2022-10-04T14:44:12.826Z,3.05
2022-10-04T14:46:57.096Z,2.53
2022-10-04T14:50:00.710Z,3.28
2022-10-04T14:52:52.567Z,1.45
2022-10-04T14:55:36.150Z,2.65
2022-10-04T14:58:11.959Z,2.78
2022-10-04T15:01:03.653Z,1.10
2022-10-04T15:03:36.113Z,2.95
2022-10-04T15:06:12.019Z,4.95
2022-10-04T15:09:12.344Z,1.88
2022-10-04T15:12:25.640Z,2.58
2022-10-04T15:15:02.655Z,4.18
2022-10-04T15:17:37.691Z,2.50
2022-10-04T15:20:24.788Z,3.45
2022-10-04T15:22:54.149Z,14.02
2022-10-04T15:25:39.653Z,12.57
2022-10-04T15:28:12.138Z,10.93
2022-10-04T15:30:56.692Z,3.60
2022-10-04T15:33:48.779Z,7.70
2022-10-04T15:36:37.188Z,5.60
2022-10-04T15:39:21.500Z,8.57
2022-10-04T15:42:07.068Z,6.85
2022-10-04T15:45:04.663Z,8.88
2022-10-04T15:47:49.288Z,9.63
2022-10-04T15:50:29.255Z,8.15
2022-10-04T15:53:20.194Z,9.30
2022-10-04T15:56:12.128Z,9.73
2022-10-04T15:59:18.997Z,5.18
2022-10-04T16:02:03.102Z,5.82
2022-10-04T16:04:40.239Z,7.63
2022-10-04T16:07:06.537Z,8.57
2022-10-04T16:09:40.380Z,7.35
2022-10-04T16:12:20.004Z,25.27
2022-10-04T16:14:58.850Z,14.40
2022-10-04T16:17:43.990Z,10.00
2022-10-04T16:20:40.530Z,6.40
2022-10-04T16:23:44.067Z,6.07
2022-10-04T16:26:19.408Z,8.40
2022-10-04T16:29:00.680Z,7.97
2022-10-04T16:31:46.227Z,16.58
2022-10-04T16:34:45.257Z,5.32
2022-10-04T16:37:23.784Z,6.47
2022-10-04T16:40:00.739Z,6.93
2022-10-04T16:42:45.389Z,6.13
2022-10-04T16:45:14.667Z,3.80
2022-10-04T16:47:56.468Z,6.50
2022-10-04T16:51:01.637Z,4.82
2022-10-04T16:56:24.088Z,4.13
2022-10-04T16:58:56.499Z,15.23
2022-10-04T17:01:22.973Z,8.60
2022-10-04T17:04:04.474Z,18.25
2022-10-04T17:06:49.668Z,9.43
2022-10-04T17:09:35.395Z,5.70
2022-10-04T17:12:17.567Z,4.82
2022-10-04T17:14:55.226Z,5.30
2022-10-04T17:17:46.638Z,9.25
2022-10-04T17:20:13.070Z,10.65
2022-10-04T17:23:03.942Z,10.10
2022-10-04T17:25:48.455Z,17.23
2022-10-04T17:28:31.579Z,8.65
2022-10-04T17:31:09.028Z,7.10
2022-10-04T17:34:07.749Z,10.15
2022-10-04T17:36:54.927Z,12.90
2022-10-04T17:39:34.526Z,6.88
2022-10-04T17:42:13.250Z,5.18
2022-10-04T17:44:45.461Z,10.50
2022-10-04T17:47:54.971Z,6.65
2022-10-04T17:50:48.757Z,6.45
2022-10-04T17:56:07.502Z,6.15
2022-10-04T17:58:52.268Z,3.63
2022-10-04T18:01:55.932Z,6.82
2022-10-04T18:04:30.483Z,8.32
2022-10-04T18:07:21.354Z,7.93
2022-10-04T18:09:55.898Z,6.35
2022-10-04T18:12:28.570Z,7.90
2022-10-04T18:15:06.000Z,8.60
2022-10-04T18:17:42.681Z,9.00
2022-10-04T18:22:47.082Z,11.35
2022-10-04T18:25:14.046Z,12.02
2022-10-04T18:28:06.874Z,7.55
2022-10-04T18:30:48.950Z,6.68
2022-10-04T18:33:19.598Z,10.52
2022-10-04T18:36:05.162Z,7.80
2022-10-04T18:38:34.424Z,6.70
2022-10-04T18:41:13.020Z,7.35
2022-10-04T18:43:51.515Z,6.40
2022-10-04T18:46:24.888Z,7.05
2022-10-04T18:48:56.318Z,5.05
2022-10-04T18:51:26.097Z,12.93
2022-10-04T18:54:06.343Z,9.40
2022-10-04T18:56:52.773Z,5.90
2022-10-04T19:00:01.034Z,4.68
2022-10-04T19:03:04.684Z,8.15
2022-10-04T19:05:57.159Z,8.98
2022-10-04T19:08:47.926Z,7.88
2022-10-04T19:11:26.634Z,7.07
2022-10-04T19:14:17.875Z,6.97
2022-10-04T19:17:05.363Z,6.07
2022-10-04T19:19:39.919Z,5.55
2022-10-04T19:22:35.000Z,5.80
2022-10-04T19:25:17.096Z,7.00
2022-10-04T19:27:57.199Z,8.48
2022-10-04T19:30:41.643Z,8.77
2022-10-04T19:33:29.570Z,7.10
2022-10-04T19:36:24.316Z,9.27
2022-10-04T19:39:12.534Z,12.02
2022-10-04T19:41:56.594Z,9.95
2022-10-04T19:44:35.479Z,8.27
2022-10-04T19:47:16.190Z,8.00
2022-10-04T19:50:01.992Z,6.03
2022-10-04T19:52:35.634Z,9.70
2022-10-04T19:55:17.536Z,10.75
2022-10-04T19:58:15.660Z,8.90
2022-10-04T20:00:42.050Z,7.00
2022-10-04T20:03:15.071Z,8.00
2022-10-04T20:05:47.254Z,20.10
2022-10-04T20:08:17.155Z,11.43
2022-10-04T20:10:44.141Z,8.30
2022-10-04T20:13:10.726Z,14.05
2022-10-04T20:15:37.711Z,9.57
2022-10-04T20:18:31.741Z,7.05
2022-10-04T20:20:59.953Z,7.07
2022-10-04T20:23:38.716Z,4.93
2022-10-04T20:26:08.814Z,8.23
2022-10-04T20:28:41.703Z,6.97
2022-10-04T20:31:10.461Z,6.10
2022-10-04T20:33:38.815Z,10.40
2022-10-04T20:36:31.394Z,6.82
2022-10-04T20:38:59.611Z,5.68
2022-10-04T20:41:28.806Z,6.13
2022-10-04T20:44:03.901Z,7.30
2022-10-04T20:46:39.793Z,9.00
2022-10-04T20:49:16.027Z,6.38
2022-10-04T20:51:49.731Z,6.25
2022-10-04T20:54:20.880Z,6.63
2022-10-04T20:56:49.926Z,8.70
2022-10-04T20:59:18.223Z,9.57
2022-10-04T21:02:01.623Z,7.20
2022-10-04T21:04:32.399Z,9.88
2022-10-04T21:07:05.709Z,6.50
2022-10-04T21:09:34.092Z,6.45
2022-10-04T21:12:01.711Z,8.00
2022-10-04T21:14:27.971Z,6.95
2022-10-04T21:17:01.414Z,6.68
2022-10-04T21:19:44.419Z,5.72
2022-10-04T21:22:31.977Z,7.78
2022-10-04T21:25:25.802Z,5.88
2022-10-04T21:27:53.190Z,7.40
2022-10-04T21:30:19.729Z,8.43
2022-10-04T21:32:46.367Z,8.70
2022-10-04T21:35:13.358Z,9.75
2022-10-04T21:37:40.043Z,7.97
2022-10-04T21:40:07.428Z,7.32
2022-10-04T21:42:33.920Z,9.45
2022-10-04T21:45:00.391Z,7.70
2022-10-04T21:47:26.742Z,9.18
2022-10-04T21:49:53.857Z,7.32
2022-10-04T21:52:20.725Z,6.22
2022-10-04T21:54:47.266Z,7.13
2022-10-04T21:57:13.633Z,7.22
2022-10-04T21:59:40.015Z,7.82
2022-10-04T22:02:07.699Z,8.40
2022-10-04T22:04:34.646Z,8.38
2022-10-04T22:07:01.134Z,6.80
2022-10-04T22:09:27.540Z,6.07
2022-10-04T22:11:53.927Z,8.00
2022-10-04T22:14:20.234Z,5.93
2022-10-04T22:16:46.886Z,6.05
2022-10-04T22:19:13.428Z,7.45
2022-10-04T22:21:39.798Z,8.93
2022-10-04T22:24:16.275Z,7.38
2022-10-04T22:26:42.734Z,9.70
2022-10-04T22:29:13.481Z,9.60
2022-10-04T22:31:43.917Z,9.45
2022-10-04T22:34:19.325Z,7.85
2022-10-04T22:36:47.703Z,8.85
2022-10-04T22:39:17.477Z,10.60
2022-10-04T22:41:59.634Z,8.82
2022-10-04T22:44:36.343Z,8.70
2022-10-04T22:47:04.623Z,9.65
2022-10-04T22:49:34.337Z,9.80
2022-10-04T22:52:03.955Z,7.72
2022-10-04T22:54:35.548Z,8.23
2022-10-04T22:57:02.224Z,11.18
2022-10-04T22:59:37.459Z,9.57
2022-10-04T23:02:10.683Z,9.07
2022-10-04T23:04:37.177Z,12.05
2022-10-04T23:07:03.634Z,7.10
2022-10-04T23:09:29.972Z,11.43
2022-10-04T23:11:56.306Z,8.60
2022-10-04T23:14:22.617Z,8.55
2022-10-04T23:16:49.514Z,9.57
2022-10-04T23:19:19.960Z,8.90
2022-10-04T23:21:48.607Z,8.43
2022-10-04T23:24:20.607Z,10.43
2022-10-04T23:26:55.131Z,8.55
2022-10-04T23:29:24.726Z,8.45
2022-10-04T23:31:52.366Z,8.90
2022-10-04T23:34:25.713Z,9.05
2022-10-04T23:36:52.359Z,10.75
2022-10-04T23:39:24.949Z,7.63
2022-10-04T23:41:53.632Z,7.90
2022-10-04T23:44:22.124Z,12.77
2022-10-04T23:46:48.783Z,9.82
2022-10-04T23:49:20.204Z,7.63
2022-10-04T23:51:48.021Z,9.57
2022-10-04T23:54:20.010Z,10.65
2022-10-04T23:56:47.212Z,8.75
2022-10-04T23:59:19.328Z,10.55
